sensor_id;sensor_type;location;lat;lon;timestamp;temperature;humidity
20422;DHT22;10370;53.102;18.034;2023-10-08T00:02:38;10.70;99.90
20422;DHT22;10370;53.102;18.034;2023-10-08T00:08:01;10.70;99.90
20422;DHT22;10370;53.102;18.034;2023-10-08T00:13:26;10.70;99.90
20422;DHT22;10370;53.102;18.034;2023-10-08T00:18:55;10.70;99.90
20422;DHT22;10370;53.102;18.034;2023-10-08T00:24:22;10.70;99.90
20422;DHT22;10370;53.102;18.034;2023-10-08T00:29:49;10.70;99.90
20422;DHT22;10370;53.102;18.034;2023-10-08T00:35:11;10.70;99.90
20422;DHT22;10370;53.102;18.034;2023-10-08T00:40:39;10.60;99.90
20422;DHT22;10370;53.102;18.034;2023-10-08T00:46:03;10.70;99.90
20422;DHT22;10370;53.102;18.034;2023-10-08T00:51:27;10.70;99.90
20422;DHT22;10370;53.102;18.034;2023-10-08T00:57:02;10.50;99.90
20422;DHT22;10370;53.102;18.034;2023-10-08T01:02:34;10.50;99.90
20422;DHT22;10370;53.102;18.034;2023-10-08T01:08:09;10.50;99.90
20422;DHT22;10370;53.102;18.034;2023-10-08T01:20:38;10.40;99.90
20422;DHT22;10370;53.102;18.034;2023-10-08T01:27:01;10.30;99.90
20422;DHT22;10370;53.102;18.034;2023-10-08T01:39:06;10.30;99.90
20422;DHT22;10370;53.102;18.034;2023-10-08T01:45:17;10.20;99.90
20422;DHT22;10370;53.102;18.034;2023-10-08T01:50:40;10.20;99.90
20422;DHT22;10370;53.102;18.034;2023-10-08T01:56:09;10.20;99.90
20422;DHT22;10370;53.102;18.034;2023-10-08T02:01:56;10.10;99.90
20422;DHT22;10370;53.102;18.034;2023-10-08T02:13:28;10.10;99.90
20422;DHT22;10370;53.102;18.034;2023-10-08T02:18:52;10.00;99.90
20422;DHT22;10370;53.102;18.034;2023-10-08T02:24:15;10.00;99.90
20422;DHT22;10370;53.102;18.034;2023-10-08T02:29:37;10.00;99.90
20422;DHT22;10370;53.102;18.034;2023-10-08T02:35:01;10.00;99.90
20422;DHT22;10370;53.102;18.034;2023-10-08T02:40:23;9.90;99.90
20422;DHT22;10370;53.102;18.034;2023-10-08T02:45:49;9.90;99.90
20422;DHT22;10370;53.102;18.034;2023-10-08T02:51:13;9.80;99.90
20422;DHT22;10370;53.102;18.034;2023-10-08T02:56:44;9.80;99.90
20422;DHT22;10370;53.102;18.034;2023-10-08T03:02:10;9.60;99.90
20422;DHT22;10370;53.102;18.034;2023-10-08T03:07:37;9.50;99.90
20422;DHT22;10370;53.102;18.034;2023-10-08T03:13:00;9.30;99.90
20422;DHT22;10370;53.102;18.034;2023-10-08T03:18:32;9.20;99.90
20422;DHT22;10370;53.102;18.034;2023-10-08T03:23:59;9.00;99.90
20422;DHT22;10370;53.102;18.034;2023-10-08T03:29:29;8.90;99.90
20422;DHT22;10370;53.102;18.034;2023-10-08T03:34:53;8.90;99.90
20422;DHT22;10370;53.102;18.034;2023-10-08T03:40:17;8.70;99.90
20422;DHT22;10370;53.102;18.034;2023-10-08T03:46:04;8.70;99.90
20422;DHT22;10370;53.102;18.034;2023-10-08T03:51:28;8.60;99.90
20422;DHT22;10370;53.102;18.034;2023-10-08T03:56:51;8.40;99.90
20422;DHT22;10370;53.102;18.034;2023-10-08T04:02:14;8.30;99.90
20422;DHT22;10370;53.102;18.034;2023-10-08T04:07:40;8.30;99.90
20422;DHT22;10370;53.102;18.034;2023-10-08T04:13:23;8.20;99.90
20422;DHT22;10370;53.102;18.034;2023-10-08T04:18:49;8.00;99.90
20422;DHT22;10370;53.102;18.034;2023-10-08T04:24:13;8.00;99.90
20422;DHT22;10370;53.102;18.034;2023-10-08T04:29:42;7.80;99.90
20422;DHT22;10370;53.102;18.034;2023-10-08T04:35:05;7.70;99.90
20422;DHT22;10370;53.102;18.034;2023-10-08T04:40:33;7.50;99.90
20422;DHT22;10370;53.102;18.034;2023-10-08T04:46:01;7.30;99.90
20422;DHT22;10370;53.102;18.034;2023-10-08T04:51:33;7.40;99.90
20422;DHT22;10370;53.102;18.034;2023-10-08T04:57:05;7.30;99.90
20422;DHT22;10370;53.102;18.034;2023-10-08T05:02:28;7.20;99.90
20422;DHT22;10370;53.102;18.034;2023-10-08T05:08:09;7.10;99.90
20422;DHT22;10370;53.102;18.034;2023-10-08T05:13:51;6.90;99.90
20422;DHT22;10370;53.102;18.034;2023-10-08T05:19:28;6.70;99.90
20422;DHT22;10370;53.102;18.034;2023-10-08T05:25:05;6.60;99.90
20422;DHT22;10370;53.102;18.034;2023-10-08T05:30:40;6.50;99.90
20422;DHT22;10370;53.102;18.034;2023-10-08T05:36:15;6.50;99.90
20422;DHT22;10370;53.102;18.034;2023-10-08T05:41:50;6.50;99.90
20422;DHT22;10370;53.102;18.034;2023-10-08T05:47:36;6.60;99.90
20422;DHT22;10370;53.102;18.034;2023-10-08T05:53:55;6.60;99.90
20422;DHT22;10370;53.102;18.034;2023-10-08T05:59:22;6.60;99.90
20422;DHT22;10370;53.102;18.034;2023-10-08T06:04:52;6.60;99.90
20422;DHT22;10370;53.102;18.034;2023-10-08T06:10:35;6.70;99.90
20422;DHT22;10370;53.102;18.034;2023-10-08T06:15:59;6.80;99.90
20422;DHT22;10370;53.102;18.034;2023-10-08T06:21:21;7.00;99.90
20422;DHT22;10370;53.102;18.034;2023-10-08T06:26:44;7.10;99.90
20422;DHT22;10370;53.102;18.034;2023-10-08T06:32:11;7.20;99.90
20422;DHT22;10370;53.102;18.034;2023-10-08T06:37:34;7.30;99.90
20422;DHT22;10370;53.102;18.034;2023-10-08T06:42:57;7.50;99.90
20422;DHT22;10370;53.102;18.034;2023-10-08T06:48:22;7.60;99.90
20422;DHT22;10370;53.102;18.034;2023-10-08T06:53:48;7.70;99.90
20422;DHT22;10370;53.102;18.034;2023-10-08T06:59:10;7.90;99.90
20422;DHT22;10370;53.102;18.034;2023-10-08T07:04:33;8.00;99.90
20422;DHT22;10370;53.102;18.034;2023-10-08T07:09:56;8.10;99.90
20422;DHT22;10370;53.102;18.034;2023-10-08T07:15:18;8.30;99.90
20422;DHT22;10370;53.102;18.034;2023-10-08T07:20:46;8.50;99.90
20422;DHT22;10370;53.102;18.034;2023-10-08T07:26:15;8.60;99.90
20422;DHT22;10370;53.102;18.034;2023-10-08T07:31:40;8.70;99.90
20422;DHT22;10370;53.102;18.034;2023-10-08T07:37:04;8.80;99.90
20422;DHT22;10370;53.102;18.034;2023-10-08T07:42:31;9.00;99.90
20422;DHT22;10370;53.102;18.034;2023-10-08T07:47:54;9.00;99.90
20422;DHT22;10370;53.102;18.034;2023-10-08T07:53:17;9.20;99.90
20422;DHT22;10370;53.102;18.034;2023-10-08T07:58:43;9.20;99.90
20422;DHT22;10370;53.102;18.034;2023-10-08T08:04:12;9.30;99.90
20422;DHT22;10370;53.102;18.034;2023-10-08T08:09:46;9.50;99.90
20422;DHT22;10370;53.102;18.034;2023-10-08T08:15:21;9.60;99.90
20422;DHT22;10370;53.102;18.034;2023-10-08T08:20:47;9.70;99.90
20422;DHT22;10370;53.102;18.034;2023-10-08T08:26:10;9.80;99.90
20422;DHT22;10370;53.102;18.034;2023-10-08T08:32:11;9.90;99.90
20422;DHT22;10370;53.102;18.034;2023-10-08T08:37:44;10.00;99.90
20422;DHT22;10370;53.102;18.034;2023-10-08T08:43:12;10.00;99.90
20422;DHT22;10370;53.102;18.034;2023-10-08T08:54:28;10.20;99.90
20422;DHT22;10370;53.102;18.034;2023-10-08T08:59:53;10.30;99.90
20422;DHT22;10370;53.102;18.034;2023-10-08T09:05:17;10.40;99.90
20422;DHT22;10370;53.102;18.034;2023-10-08T09:10:58;10.50;99.90
20422;DHT22;10370;53.102;18.034;2023-10-08T09:16:27;10.70;99.90
20422;DHT22;10370;53.102;18.034;2023-10-08T09:22:04;10.80;99.90
20422;DHT22;10370;53.102;18.034;2023-10-08T09:27:27;10.90;99.90
20422;DHT22;10370;53.102;18.034;2023-10-08T09:32:49;10.90;99.90
20422;DHT22;10370;53.102;18.034;2023-10-08T09:38:15;11.10;99.90
20422;DHT22;10370;53.102;18.034;2023-10-08T09:43:46;11.10;99.90
20422;DHT22;10370;53.102;18.034;2023-10-08T09:49:16;11.20;99.90
20422;DHT22;10370;53.102;18.034;2023-10-08T09:54:46;11.20;99.90
20422;DHT22;10370;53.102;18.034;2023-10-08T10:00:11;11.30;99.90
20422;DHT22;10370;53.102;18.034;2023-10-08T10:05:37;11.30;99.90
20422;DHT22;10370;53.102;18.034;2023-10-08T10:11:00;11.50;99.90
20422;DHT22;10370;53.102;18.034;2023-10-08T10:16:23;11.60;99.90
20422;DHT22;10370;53.102;18.034;2023-10-08T10:21:46;11.40;99.90
20422;DHT22;10370;53.102;18.034;2023-10-08T10:27:16;11.60;99.90
20422;DHT22;10370;53.102;18.034;2023-10-08T10:32:44;11.70;99.90
20422;DHT22;10370;53.102;18.034;2023-10-08T10:38:09;11.80;99.90
20422;DHT22;10370;53.102;18.034;2023-10-08T10:43:38;11.60;99.90
20422;DHT22;10370;53.102;18.034;2023-10-08T10:49:15;11.90;99.90
20422;DHT22;10370;53.102;18.034;2023-10-08T10:55:03;12.00;99.90
20422;DHT22;10370;53.102;18.034;2023-10-08T11:00:42;12.30;99.90
20422;DHT22;10370;53.102;18.034;2023-10-08T11:06:05;12.20;99.90
20422;DHT22;10370;53.102;18.034;2023-10-08T11:11:29;11.90;99.90
20422;DHT22;10370;53.102;18.034;2023-10-08T11:16:52;11.80;99.90
20422;DHT22;10370;53.102;18.034;2023-10-08T11:22:15;11.90;99.90
20422;DHT22;10370;53.102;18.034;2023-10-08T11:27:45;12.30;99.90
20422;DHT22;10370;53.102;18.034;2023-10-08T11:33:08;12.40;99.90
20422;DHT22;10370;53.102;18.034;2023-10-08T11:38:41;12.40;99.90
20422;DHT22;10370;53.102;18.034;2023-10-08T11:44:04;12.40;97.00
20422;DHT22;10370;53.102;18.034;2023-10-08T11:49:26;12.50;95.40
20422;DHT22;10370;53.102;18.034;2023-10-08T11:54:50;12.40;94.40
20422;DHT22;10370;53.102;18.034;2023-10-08T12:00:16;12.60;96.00
20422;DHT22;10370;53.102;18.034;2023-10-08T12:06:02;12.50;93.70
20422;DHT22;10370;53.102;18.034;2023-10-08T12:11:27;12.50;93.60
20422;DHT22;10370;53.102;18.034;2023-10-08T12:17:34;12.50;93.20
20422;DHT22;10370;53.102;18.034;2023-10-08T12:23:20;12.40;92.90
20422;DHT22;10370;53.102;18.034;2023-10-08T12:28:49;12.50;92.20
20422;DHT22;10370;53.102;18.034;2023-10-08T12:34:12;12.50;92.90
20422;DHT22;10370;53.102;18.034;2023-10-08T12:39:35;12.60;92.40
20422;DHT22;10370;53.102;18.034;2023-10-08T12:45:07;12.60;92.30
20422;DHT22;10370;53.102;18.034;2023-10-08T12:50:34;12.60;91.40
20422;DHT22;10370;53.102;18.034;2023-10-08T12:56:07;12.50;91.00
20422;DHT22;10370;53.102;18.034;2023-10-08T13:01:37;12.40;90.10
20422;DHT22;10370;53.102;18.034;2023-10-08T13:07:04;12.30;89.80
20422;DHT22;10370;53.102;18.034;2023-10-08T13:12:26;12.50;91.50
20422;DHT22;10370;53.102;18.034;2023-10-08T13:17:49;12.30;90.00
20422;DHT22;10370;53.102;18.034;2023-10-08T13:23:13;12.40;90.90
20422;DHT22;10370;53.102;18.034;2023-10-08T13:28:36;12.30;90.70
20422;DHT22;10370;53.102;18.034;2023-10-08T13:33:59;12.30;92.00
20422;DHT22;10370;53.102;18.034;2023-10-08T13:39:25;12.20;91.30
20422;DHT22;10370;53.102;18.034;2023-10-08T13:44:49;12.30;90.90
20422;DHT22;10370;53.102;18.034;2023-10-08T13:50:14;12.30;91.30
20422;DHT22;10370;53.102;18.034;2023-10-08T13:55:38;12.20;90.50
20422;DHT22;10370;53.102;18.034;2023-10-08T14:01:08;12.10;90.60
20422;DHT22;10370;53.102;18.034;2023-10-08T14:06:44;12.10;92.00
20422;DHT22;10370;53.102;18.034;2023-10-08T14:12:15;12.20;92.90
20422;DHT22;10370;53.102;18.034;2023-10-08T14:17:46;12.10;92.00
20422;DHT22;10370;53.102;18.034;2023-10-08T14:23:13;12.10;90.50
20422;DHT22;10370;53.102;18.034;2023-10-08T14:28:44;12.00;89.70
20422;DHT22;10370;53.102;18.034;2023-10-08T14:34:14;11.80;89.40
20422;DHT22;10370;53.102;18.034;2023-10-08T14:39:40;11.80;90.00
20422;DHT22;10370;53.102;18.034;2023-10-08T14:45:26;11.70;90.60
20422;DHT22;10370;53.102;18.034;2023-10-08T14:50:49;11.60;91.40
20422;DHT22;10370;53.102;18.034;2023-10-08T14:56:12;11.40;90.00
20422;DHT22;10370;53.102;18.034;2023-10-08T15:01:38;11.40;90.50
20422;DHT22;10370;53.102;18.034;2023-10-08T15:07:05;11.30;91.30
20422;DHT22;10370;53.102;18.034;2023-10-08T15:12:31;11.20;91.70
20422;DHT22;10370;53.102;18.034;2023-10-08T15:17:57;11.10;92.60
20422;DHT22;10370;53.102;18.034;2023-10-08T15:23:20;10.90;92.70
20422;DHT22;10370;53.102;18.034;2023-10-08T15:28:48;10.70;93.20
20422;DHT22;10370;53.102;18.034;2023-10-08T15:34:11;10.60;93.80
20422;DHT22;10370;53.102;18.034;2023-10-08T15:39:49;10.40;94.70
20422;DHT22;10370;53.102;18.034;2023-10-08T15:45:12;10.30;95.00
20422;DHT22;10370;53.102;18.034;2023-10-08T15:50:35;10.10;95.30
20422;DHT22;10370;53.102;18.034;2023-10-08T15:55:58;10.00;95.90
20422;DHT22;10370;53.102;18.034;2023-10-08T16:01:21;9.80;96.60
20422;DHT22;10370;53.102;18.034;2023-10-08T16:06:44;9.70;97.00
20422;DHT22;10370;53.102;18.034;2023-10-08T16:12:07;9.60;96.70
20422;DHT22;10370;53.102;18.034;2023-10-08T16:17:29;9.50;97.20
20422;DHT22;10370;53.102;18.034;2023-10-08T16:22:53;9.30;97.60
20422;DHT22;10370;53.102;18.034;2023-10-08T16:28:16;9.20;97.90
20422;DHT22;10370;53.102;18.034;2023-10-08T16:33:41;9.00;98.50
20422;DHT22;10370;53.102;18.034;2023-10-08T16:39:05;8.80;99.20
20422;DHT22;10370;53.102;18.034;2023-10-08T16:44:29;8.80;99.60
20422;DHT22;10370;53.102;18.034;2023-10-08T16:49:52;8.70;99.90
20422;DHT22;10370;53.102;18.034;2023-10-08T16:55:16;8.50;99.90
20422;DHT22;10370;53.102;18.034;2023-10-08T17:00:39;8.30;99.90
20422;DHT22;10370;53.102;18.034;2023-10-08T17:06:02;8.10;99.90
20422;DHT22;10370;53.102;18.034;2023-10-08T17:11:30;7.90;99.90
20422;DHT22;10370;53.102;18.034;2023-10-08T17:17:04;7.90;99.90
20422;DHT22;10370;53.102;18.034;2023-10-08T17:22:27;7.70;99.90
20422;DHT22;10370;53.102;18.034;2023-10-08T17:27:50;7.70;99.90
20422;DHT22;10370;53.102;18.034;2023-10-08T17:33:13;7.70;99.90
20422;DHT22;10370;53.102;18.034;2023-10-08T17:38:36;7.60;99.90
20422;DHT22;10370;53.102;18.034;2023-10-08T17:44:00;7.50;99.90
20422;DHT22;10370;53.102;18.034;2023-10-08T17:49:23;7.30;99.90
20422;DHT22;10370;53.102;18.034;2023-10-08T17:54:47;7.30;99.90
20422;DHT22;10370;53.102;18.034;2023-10-08T18:00:10;7.10;99.90
20422;DHT22;10370;53.102;18.034;2023-10-08T18:12:19;6.80;99.90
20422;DHT22;10370;53.102;18.034;2023-10-08T18:17:53;6.60;99.90
20422;DHT22;10370;53.102;18.034;2023-10-08T18:23:19;6.70;99.90
20422;DHT22;10370;53.102;18.034;2023-10-08T18:28:47;6.70;99.90
20422;DHT22;10370;53.102;18.034;2023-10-08T18:34:12;6.50;99.90
20422;DHT22;10370;53.102;18.034;2023-10-08T18:39:37;6.40;99.90
20422;DHT22;10370;53.102;18.034;2023-10-08T18:45:32;6.10;99.90
20422;DHT22;10370;53.102;18.034;2023-10-08T18:51:03;6.00;99.90
20422;DHT22;10370;53.102;18.034;2023-10-08T18:56:26;6.00;99.90
20422;DHT22;10370;53.102;18.034;2023-10-08T19:01:56;5.90;99.90
20422;DHT22;10370;53.102;18.034;2023-10-08T19:07:19;5.70;99.90
20422;DHT22;10370;53.102;18.034;2023-10-08T19:12:42;5.50;99.90
20422;DHT22;10370;53.102;18.034;2023-10-08T19:18:11;5.60;99.90
20422;DHT22;10370;53.102;18.034;2023-10-08T19:23:40;5.60;99.90
20422;DHT22;10370;53.102;18.034;2023-10-08T19:29:03;5.40;99.90
20422;DHT22;10370;53.102;18.034;2023-10-08T19:34:43;5.20;99.90
20422;DHT22;10370;53.102;18.034;2023-10-08T19:41:10;5.20;99.90
20422;DHT22;10370;53.102;18.034;2023-10-08T19:46:33;4.90;99.90
20422;DHT22;10370;53.102;18.034;2023-10-08T19:51:55;4.60;99.90
20422;DHT22;10370;53.102;18.034;2023-10-08T19:57:19;4.60;99.90
20422;DHT22;10370;53.102;18.034;2023-10-08T20:08:33;4.10;99.90
20422;DHT22;10370;53.102;18.034;2023-10-08T20:14:18;3.90;99.90
20422;DHT22;10370;53.102;18.034;2023-10-08T20:20:00;4.00;99.90
20422;DHT22;10370;53.102;18.034;2023-10-08T20:25:29;3.70;99.90
20422;DHT22;10370;53.102;18.034;2023-10-08T20:30:53;3.60;99.90
20422;DHT22;10370;53.102;18.034;2023-10-08T20:36:19;3.30;99.90
20422;DHT22;10370;53.102;18.034;2023-10-08T20:41:50;3.20;99.90
20422;DHT22;10370;53.102;18.034;2023-10-08T20:47:31;3.10;99.90
20422;DHT22;10370;53.102;18.034;2023-10-08T20:52:57;3.00;99.90
20422;DHT22;10370;53.102;18.034;2023-10-08T20:58:20;2.90;99.90
20422;DHT22;10370;53.102;18.034;2023-10-08T21:03:47;2.70;99.90
20422;DHT22;10370;53.102;18.034;2023-10-08T21:09:10;2.70;99.90
20422;DHT22;10370;53.102;18.034;2023-10-08T21:14:40;2.80;99.90
20422;DHT22;10370;53.102;18.034;2023-10-08T21:20:05;2.70;99.90
20422;DHT22;10370;53.102;18.034;2023-10-08T21:25:44;2.60;99.90
20422;DHT22;10370;53.102;18.034;2023-10-08T21:31:09;2.50;99.90
20422;DHT22;10370;53.102;18.034;2023-10-08T21:36:34;2.40;99.90
20422;DHT22;10370;53.102;18.034;2023-10-08T21:41:59;2.30;99.90
20422;DHT22;10370;53.102;18.034;2023-10-08T21:47:25;2.20;99.90
20422;DHT22;10370;53.102;18.034;2023-10-08T21:52:51;2.10;99.90
20422;DHT22;10370;53.102;18.034;2023-10-08T21:58:20;2.10;99.90
20422;DHT22;10370;53.102;18.034;2023-10-08T22:03:44;1.90;99.90
20422;DHT22;10370;53.102;18.034;2023-10-08T22:09:09;1.90;99.90
20422;DHT22;10370;53.102;18.034;2023-10-08T22:14:38;1.90;99.90
20422;DHT22;10370;53.102;18.034;2023-10-08T22:20:07;1.80;99.90
20422;DHT22;10370;53.102;18.034;2023-10-08T22:25:32;1.80;99.90
20422;DHT22;10370;53.102;18.034;2023-10-08T22:30:55;1.80;99.90
20422;DHT22;10370;53.102;18.034;2023-10-08T22:36:21;1.80;99.90
20422;DHT22;10370;53.102;18.034;2023-10-08T22:41:47;1.80;99.90
20422;DHT22;10370;53.102;18.034;2023-10-08T22:47:17;1.90;99.90
20422;DHT22;10370;53.102;18.034;2023-10-08T22:52:43;1.80;99.90
20422;DHT22;10370;53.102;18.034;2023-10-08T22:58:07;1.80;99.90
20422;DHT22;10370;53.102;18.034;2023-10-08T23:03:30;1.90;99.90
20422;DHT22;10370;53.102;18.034;2023-10-08T23:08:53;1.80;99.90
20422;DHT22;10370;53.102;18.034;2023-10-08T23:14:17;1.80;99.90
20422;DHT22;10370;53.102;18.034;2023-10-08T23:19:41;1.90;99.90
20422;DHT22;10370;53.102;18.034;2023-10-08T23:25:26;1.90;99.90
20422;DHT22;10370;53.102;18.034;2023-10-08T23:31:12;1.90;99.90
20422;DHT22;10370;53.102;18.034;2023-10-08T23:36:36;1.80;99.90
20422;DHT22;10370;53.102;18.034;2023-10-08T23:42:01;1.80;99.90
20422;DHT22;10370;53.102;18.034;2023-10-08T23:47:45;1.80;99.90
20422;DHT22;10370;53.102;18.034;2023-10-08T23:53:10;1.80;99.90
20422;DHT22;10370;53.102;18.034;2023-10-08T23:58:34;1.90;99.90
